Time;durP1;ratioP1;P1;durP2;ratioP2;P2;SDS_P1;SDS_P2;PMS_P1;PMS_P2;Temp;Humidity;BMP_temperature;BMP_pressure;BME280_temperature;BME280_humidity;BME280_pressure;Samples;Min_cycle;Max_cycle;Signal;HPM_P1;HPM_P2
2021/12/04 00:01:12;;;;;;;;;;;22.10;99.90;;;;;;5034155;28;19964;-61
2021/12/04 00:03:39;;;;;;;;;;;22.10;99.90;;;;;;5014616;28;19917;-61
2021/12/04 00:09:05;;;;;;;;;;;22.10;99.90;;;;;;5000468;28;19935;-62
2021/12/04 00:11:34;;;;;;;;;;;22.10;99.90;;;;;;5033542;28;19909;-62
2021/12/04 00:14:01;;;;;;;;;;;22.10;99.90;;;;;;5034038;28;20008;-62
2021/12/04 00:16:28;;;;;;;;;;;22.00;99.90;;;;;;5012938;28;20285;-62
2021/12/04 00:18:54;;;;;;;;;;;22.00;99.90;;;;;;5012822;28;19963;-62
2021/12/04 00:21:21;;;;;;;;;;;21.90;99.90;;;;;;5029502;28;19988;-62
2021/12/04 00:23:48;;;;;;;;;;;21.80;99.90;;;;;;5033796;28;19945;-62
2021/12/04 00:26:15;;;;;;;;;;;21.80;99.90;;;;;;5033585;28;19963;-62
2021/12/04 00:28:42;;;;;;;;;;;21.80;99.90;;;;;;5014610;28;19945;-62
2021/12/04 00:31:09;;;;;;;;;;;21.80;99.90;;;;;;5033575;28;19979;-62
2021/12/04 00:33:38;;;;;;;;;;;21.80;99.90;;;;;;5013663;28;19910;-62
2021/12/04 00:36:13;;;;;;;;;;;21.70;99.90;;;;;;5033582;28;19909;-62
2021/12/04 00:49:43;;;;;;;;;;;22.30;99.90;;;;;;5017998;28;19979;-62
2021/12/04 00:52:10;;;;;;;;;;;22.40;99.90;;;;;;5017849;28;20301;-62
2021/12/04 00:54:37;;;;;;;;;;;22.40;99.90;;;;;;5015302;28;19909;-62
2021/12/04 00:57:04;;;;;;;;;;;22.40;99.90;;;;;;5015049;28;19914;-62
2021/12/04 00:59:31;;;;;;;;;;;22.60;99.90;;;;;;5014988;28;19910;-63
2021/12/04 01:01:58;;;;;;;;;;;22.70;99.90;;;;;;5016265;28;19943;-62
2021/12/04 01:04:25;;;;;;;;;;;22.80;99.90;;;;;;5016789;28;19920;-63
2021/12/04 01:06:52;;;;;;;;;;;22.90;99.90;;;;;;5014970;28;19936;-62
2021/12/04 01:09:20;;;;;;;;;;;23.00;99.90;;;;;;4995718;28;19910;-62
2021/12/04 01:11:47;;;;;;;;;;;23.10;99.70;;;;;;4995771;28;19913;-62
2021/12/04 01:14:15;;;;;;;;;;;23.20;99.40;;;;;;5012654;28;19921;-63
2021/12/04 01:16:42;;;;;;;;;;;23.40;99.70;;;;;;5018638;28;19917;-62
2021/12/04 01:19:10;;;;;;;;;;;23.40;99.30;;;;;;5020168;28;19909;-62
2021/12/04 01:21:37;;;;;;;;;;;23.40;98.90;;;;;;5017781;28;19910;-62
2021/12/04 01:24:04;;;;;;;;;;;23.30;99.20;;;;;;5016776;28;19919;-62
2021/12/04 01:26:30;;;;;;;;;;;23.20;99.20;;;;;;5023971;28;19947;-67
2021/12/04 01:28:57;;;;;;;;;;;23.00;99.30;;;;;;5016678;28;19956;-63
2021/12/04 01:31:25;;;;;;;;;;;22.80;99.40;;;;;;5010919;28;19921;-62
2021/12/04 01:33:52;;;;;;;;;;;22.60;99.80;;;;;;5021329;28;20377;-62
2021/12/04 01:36:19;;;;;;;;;;;22.40;99.70;;;;;;5017765;28;19918;-62
2021/12/04 01:38:47;;;;;;;;;;;22.30;99.70;;;;;;5017330;28;20008;-62
2021/12/04 01:41:14;;;;;;;;;;;22.20;99.90;;;;;;5018135;28;20009;-62
2021/12/04 01:43:42;;;;;;;;;;;22.20;99.90;;;;;;5001374;28;19913;-62
2021/12/04 01:46:09;;;;;;;;;;;22.20;99.90;;;;;;5014564;28;19910;-62
2021/12/04 01:48:36;;;;;;;;;;;22.10;99.90;;;;;;5017128;28;19913;-62
2021/12/04 01:51:03;;;;;;;;;;;22.20;99.90;;;;;;5016071;28;19917;-63
2021/12/04 01:53:30;;;;;;;;;;;22.20;99.90;;;;;;5016081;28;19963;-62
2021/12/04 01:55:57;;;;;;;;;;;22.20;99.90;;;;;;5016890;28;20443;-62
2021/12/04 01:58:24;;;;;;;;;;;22.20;99.90;;;;;;5018777;28;19909;-62
2021/12/04 02:00:51;;;;;;;;;;;22.30;99.90;;;;;;5015838;28;19956;-62
2021/12/04 02:03:19;;;;;;;;;;;22.30;99.90;;;;;;5000945;28;20404;-62
2021/12/04 02:05:46;;;;;;;;;;;22.40;99.80;;;;;;5007444;28;20391;-62
2021/12/04 02:08:15;;;;;;;;;;;22.50;99.80;;;;;;5017633;28;19956;-62
2021/12/04 02:10:42;;;;;;;;;;;22.60;99.60;;;;;;5016294;28;19963;-62
2021/12/04 02:13:09;;;;;;;;;;;22.80;99.60;;;;;;5015879;28;19909;-62
2021/12/04 02:15:36;;;;;;;;;;;22.90;99.30;;;;;;5003191;28;19913;-62
2021/12/04 02:18:06;;;;;;;;;;;23.00;99.20;;;;;;5016568;28;19913;-62
2021/12/04 02:20:34;;;;;;;;;;;23.10;98.90;;;;;;5001053;28;20008;-62
2021/12/04 02:23:04;;;;;;;;;;;23.30;99.00;;;;;;5015718;28;19921;-62
2021/12/04 02:25:31;;;;;;;;;;;23.50;98.90;;;;;;5016145;28;20000;-62
2021/12/04 02:28:00;;;;;;;;;;;23.70;98.40;;;;;;4999769;28;19941;-63
2021/12/04 02:30:27;;;;;;;;;;;23.70;97.90;;;;;;5013200;28;20020;-62
2021/12/04 02:32:55;;;;;;;;;;;23.70;97.60;;;;;;5013150;28;19914;-62
2021/12/04 02:35:22;;;;;;;;;;;23.70;98.00;;;;;;5003583;28;19999;-64
2021/12/04 02:37:49;;;;;;;;;;;23.80;97.50;;;;;;5019018;28;20286;-62
2021/12/04 02:40:18;;;;;;;;;;;23.80;97.40;;;;;;5018544;28;20015;-62
2021/12/04 02:42:45;;;;;;;;;;;24.00;97.40;;;;;;5000765;28;20004;-62
2021/12/04 02:45:12;;;;;;;;;;;24.20;97.00;;;;;;5035729;28;19909;-62
2021/12/04 02:47:39;;;;;;;;;;;24.20;96.70;;;;;;5035740;28;19909;-62
2021/12/04 02:50:07;;;;;;;;;;;24.30;96.50;;;;;;5014695;28;19945;-62
2021/12/04 02:52:34;;;;;;;;;;;24.50;96.10;;;;;;5032924;28;19910;-62
2021/12/04 02:55:01;;;;;;;;;;;24.60;96.20;;;;;;5026485;28;19979;-62
2021/12/04 02:57:28;;;;;;;;;;;24.80;95.90;;;;;;5023112;28;19913;-62
2021/12/04 02:59:56;;;;;;;;;;;25.10;95.90;;;;;;5020672;28;19909;-62
2021/12/04 03:02:24;;;;;;;;;;;25.40;95.50;;;;;;5005902;28;19913;-62
2021/12/04 03:04:52;;;;;;;;;;;25.70;95.30;;;;;;5016731;28;19924;-62
2021/12/04 03:07:19;;;;;;;;;;;26.00;95.00;;;;;;5021201;28;19921;-62
2021/12/04 03:09:47;;;;;;;;;;;26.10;94.50;;;;;;5017289;28;19971;-62
2021/12/04 03:12:15;;;;;;;;;;;26.20;94.40;;;;;;5020363;28;19913;-62
2021/12/04 03:14:42;;;;;;;;;;;26.10;94.40;;;;;;5020643;28;20374;-62
2021/12/04 03:17:10;;;;;;;;;;;25.80;93.90;;;;;;5019249;28;19909;-62
2021/12/04 03:19:38;;;;;;;;;;;25.60;94.00;;;;;;5001493;28;19909;-62
2021/12/04 03:22:07;;;;;;;;;;;25.30;93.80;;;;;;5019218;28;20000;-62
2021/12/04 03:24:38;;;;;;;;;;;25.10;94.30;;;;;;5029768;28;20400;-62
2021/12/04 03:27:05;;;;;;;;;;;25.00;94.00;;;;;;5022961;28;19945;-62
2021/12/04 03:29:35;;;;;;;;;;;25.10;94.30;;;;;;5007634;28;19993;-62
2021/12/04 03:43:03;;;;;;;;;;;25.50;93.30;;;;;;5014802;28;20012;-62
2021/12/04 03:45:31;;;;;;;;;;;25.60;92.80;;;;;;5012968;28;19949;-62
2021/12/04 03:48:06;;;;;;;;;;;25.60;93.00;;;;;;5018204;28;19916;-62
2021/12/04 03:50:33;;;;;;;;;;;25.80;93.00;;;;;;5007036;28;19917;-62
2021/12/04 03:53:00;;;;;;;;;;;25.90;92.20;;;;;;5026681;28;20112;-62
2021/12/04 03:55:27;;;;;;;;;;;25.70;92.20;;;;;;5034126;28;19913;-62
2021/12/04 03:57:54;;;;;;;;;;;25.40;92.70;;;;;;5034276;28;19909;-62
2021/12/04 04:00:27;;;;;;;;;;;25.30;92.60;;;;;;5013159;28;20317;-62
2021/12/04 04:02:58;;;;;;;;;;;25.70;93.00;;;;;;5025981;28;19913;-62
2021/12/04 04:05:25;;;;;;;;;;;26.30;92.00;;;;;;5033575;28;19963;-62
2021/12/04 04:07:52;;;;;;;;;;;26.10;91.60;;;;;;5034187;28;20431;-62
2021/12/04 04:10:20;;;;;;;;;;;25.90;91.90;;;;;;5033985;28;19909;-62
2021/12/04 04:12:48;;;;;;;;;;;25.60;92.10;;;;;;5029791;28;19920;-62
2021/12/04 04:15:15;;;;;;;;;;;25.40;92.30;;;;;;5009643;28;19914;-62
2021/12/04 04:17:42;;;;;;;;;;;25.40;92.40;;;;;;5028699;28;19909;-62
2021/12/04 04:20:16;;;;;;;;;;;25.40;92.20;;;;;;5033760;28;20358;-62
2021/12/04 04:22:43;;;;;;;;;;;25.40;92.40;;;;;;5031571;28;19909;-62
2021/12/04 04:25:11;;;;;;;;;;;25.30;92.40;;;;;;5013651;28;20497;-62
2021/12/04 04:27:38;;;;;;;;;;;25.30;92.50;;;;;;5014008;28;19909;-63
2021/12/04 04:30:06;;;;;;;;;;;25.40;92.40;;;;;;5013782;28;20020;-63
2021/12/04 04:32:33;;;;;;;;;;;25.40;92.20;;;;;;4996258;28;19913;-63
2021/12/04 04:35:08;;;;;;;;;;;25.10;92.00;;;;;;5013939;28;19910;-62
2021/12/04 04:59:43;;;;;;;;;;;23.90;93.20;;;;;;5026595;28;19919;-62
2021/12/04 05:10:38;;;;;;;;;;;22.80;94.50;;;;;;5025437;28;20434;-61
2021/12/04 05:13:08;;;;;;;;;;;22.60;94.90;;;;;;5005386;28;19916;-61
2021/12/04 05:15:40;;;;;;;;;;;22.30;95.20;;;;;;5012892;28;19961;-62
2021/12/04 05:18:14;;;;;;;;;;;22.20;95.30;;;;;;5032836;28;19913;-61
2021/12/04 05:20:47;;;;;;;;;;;22.10;95.50;;;;;;5013394;28;19910;-61
2021/12/04 05:23:14;;;;;;;;;;;22.10;95.60;;;;;;5032929;28;19927;-61
2021/12/04 05:25:42;;;;;;;;;;;22.00;95.60;;;;;;5029967;28;20263;-61
2021/12/04 05:28:09;;;;;;;;;;;21.90;95.90;;;;;;5032895;28;19909;-61
2021/12/04 05:30:35;;;;;;;;;;;21.70;96.00;;;;;;5032962;28;19909;-61
2021/12/04 05:33:02;;;;;;;;;;;21.60;96.40;;;;;;5032840;28;19909;-61
2021/12/04 05:35:29;;;;;;;;;;;21.40;96.60;;;;;;5032760;28;19909;-61
2021/12/04 05:37:57;;;;;;;;;;;21.30;97.00;;;;;;5032710;28;19921;-61
2021/12/04 05:40:24;;;;;;;;;;;21.20;97.00;;;;;;5033240;28;20003;-61
2021/12/04 05:42:51;;;;;;;;;;;21.10;97.20;;;;;;5024599;28;19921;-61
2021/12/04 05:45:21;;;;;;;;;;;21.00;97.30;;;;;;5015934;28;19928;-61
2021/12/04 05:47:56;;;;;;;;;;;21.00;97.30;;;;;;5024259;28;19920;-61
2021/12/04 05:53:16;;;;;;;;;;;20.90;97.60;;;;;;5013889;28;19917;-61
2021/12/04 05:58:20;;;;;;;;;;;20.80;97.90;;;;;;5020943;28;19913;-61
2021/12/04 06:00:47;;;;;;;;;;;20.80;97.90;;;;;;5003676;28;19910;-61
2021/12/04 06:03:15;;;;;;;;;;;20.70;98.00;;;;;;5016587;28;20350;-60
2021/12/04 06:05:41;;;;;;;;;;;20.60;98.00;;;;;;5003710;28;19917;-61
2021/12/04 06:08:08;;;;;;;;;;;20.60;98.10;;;;;;5015967;28;19914;-61
2021/12/04 06:10:35;;;;;;;;;;;20.50;98.30;;;;;;5016195;28;19916;-61
2021/12/04 06:13:03;;;;;;;;;;;20.60;98.50;;;;;;5016109;28;19910;-61
2021/12/04 06:15:29;;;;;;;;;;;20.60;98.30;;;;;;5024007;28;19914;-61
2021/12/04 06:17:56;;;;;;;;;;;20.60;98.50;;;;;;5016570;28;19910;-61
2021/12/04 06:23:09;;;;;;;;;;;20.70;98.40;;;;;;5016489;28;19967;-61
2021/12/04 06:25:36;;;;;;;;;;;20.50;98.60;;;;;;5016317;28;19936;-61
2021/12/04 06:28:03;;;;;;;;;;;20.60;98.70;;;;;;5008196;28;19920;-61
2021/12/04 06:30:35;;;;;;;;;;;20.60;98.70;;;;;;5014908;28;20004;-61
2021/12/04 06:33:02;;;;;;;;;;;20.60;98.60;;;;;;5016752;28;20024;-61
2021/12/04 06:35:31;;;;;;;;;;;20.50;98.60;;;;;;5016066;28;19914;-61
2021/12/04 06:37:58;;;;;;;;;;;20.40;98.50;;;;;;5025840;28;20004;-61
2021/12/04 06:40:26;;;;;;;;;;;20.30;98.60;;;;;;5035825;28;20381;-61
2021/12/04 06:42:57;;;;;;;;;;;20.30;98.70;;;;;;5035782;28;19949;-61
2021/12/04 06:45:24;;;;;;;;;;;20.30;98.80;;;;;;5035726;28;19944;-61
2021/12/04 06:47:56;;;;;;;;;;;20.30;98.70;;;;;;5035913;28;20330;-64
2021/12/04 06:51:07;;;;;;;;;;;20.30;98.70;;;;;;5035710;28;20000;-61
2021/12/04 06:55:49;;;;;;;;;;;20.40;98.60;;;;;;5035491;28;19963;-61
2021/12/04 06:58:16;;;;;;;;;;;20.60;98.60;;;;;;5035597;28;20004;-61
2021/12/04 07:00:43;;;;;;;;;;;21.00;97.90;;;;;;5034244;28;19920;-61
2021/12/04 07:03:10;;;;;;;;;;;21.30;97.60;;;;;;5035389;28;19913;-61
2021/12/04 07:05:37;;;;;;;;;;;21.30;97.40;;;;;;5035351;28;20000;-65
2021/12/04 07:08:07;;;;;;;;;;;21.20;97.40;;;;;;5035313;28;19910;-61
2021/12/04 07:10:34;;;;;;;;;;;21.00;97.50;;;;;;5034731;28;19933;-61
2021/12/04 07:13:01;;;;;;;;;;;21.00;97.70;;;;;;5035196;28;19916;-61
2021/12/04 07:15:31;;;;;;;;;;;21.00;98.00;;;;;;5017311;28;19910;-61
2021/12/04 07:18:01;;;;;;;;;;;20.90;97.60;;;;;;5035108;28;19916;-61
2021/12/04 07:20:28;;;;;;;;;;;20.90;97.60;;;;;;5033849;28;20266;-61
2021/12/04 07:22:55;;;;;;;;;;;20.90;97.60;;;;;;5035101;28;19909;-61
2021/12/04 07:25:22;;;;;;;;;;;20.80;97.70;;;;;;5030660;28;19919;-61
2021/12/04 07:27:50;;;;;;;;;;;20.60;97.60;;;;;;5019271;28;20432;-61
2021/12/04 07:30:20;;;;;;;;;;;20.50;98.00;;;;;;5034025;28;20330;-61
2021/12/04 07:32:47;;;;;;;;;;;20.50;98.10;;;;;;5034946;28;19909;-61
2021/12/04 07:35:14;;;;;;;;;;;20.40;98.30;;;;;;5033887;28;20399;-61
2021/12/04 07:37:42;;;;;;;;;;;20.30;98.60;;;;;;5022984;28;19976;-61
2021/12/04 07:40:09;;;;;;;;;;;20.30;98.50;;;;;;5019998;28;20008;-61
2021/12/04 07:42:36;;;;;;;;;;;20.30;98.60;;;;;;5016944;28;20403;-61
2021/12/04 07:45:03;;;;;;;;;;;20.20;98.80;;;;;;5034578;28;19913;-61
2021/12/04 07:47:30;;;;;;;;;;;20.20;98.70;;;;;;5034680;28;19909;-61
2021/12/04 07:49:57;;;;;;;;;;;20.10;98.80;;;;;;5008106;28;19935;-61
2021/12/04 07:52:24;;;;;;;;;;;20.10;98.70;;;;;;5034411;28;19917;-61
2021/12/04 07:54:51;;;;;;;;;;;20.00;98.80;;;;;;5034601;28;19924;-61
2021/12/04 07:57:18;;;;;;;;;;;20.10;99.00;;;;;;5034317;28;20007;-61
2021/12/04 07:59:45;;;;;;;;;;;20.00;99.00;;;;;;5034312;28;19909;-61
2021/12/04 08:02:12;;;;;;;;;;;20.10;99.10;;;;;;5033664;28;19968;-61
2021/12/04 08:04:39;;;;;;;;;;;20.10;99.10;;;;;;5034021;28;19935;-61
2021/12/04 08:07:06;;;;;;;;;;;20.10;99.00;;;;;;5033746;28;19913;-61
2021/12/04 08:09:33;;;;;;;;;;;20.10;99.00;;;;;;5033978;28;19936;-61
2021/12/04 08:12:00;;;;;;;;;;;20.00;99.10;;;;;;5030376;28;19913;-61
2021/12/04 08:14:27;;;;;;;;;;;20.00;99.30;;;;;;5033608;28;19920;-60
2021/12/04 08:16:54;;;;;;;;;;;19.90;99.10;;;;;;5033279;28;19917;-61
2021/12/04 08:19:21;;;;;;;;;;;19.80;99.30;;;;;;5033519;28;19913;-61
2021/12/04 08:21:48;;;;;;;;;;;19.80;99.40;;;;;;5033527;28;19913;-63
2021/12/04 08:24:15;;;;;;;;;;;19.70;99.60;;;;;;5034023;28;19920;-61
2021/12/04 08:26:44;;;;;;;;;;;19.70;99.60;;;;;;5029426;28;19921;-61
2021/12/04 08:29:11;;;;;;;;;;;19.70;99.80;;;;;;5033855;28;20362;-62
2021/12/04 08:31:38;;;;;;;;;;;19.70;99.90;;;;;;5032861;28;20014;-62
2021/12/04 08:34:05;;;;;;;;;;;19.70;99.90;;;;;;5033763;28;19932;-60
2021/12/04 08:36:34;;;;;;;;;;;19.70;99.90;;;;;;5015854;28;19914;-62
2021/12/04 08:39:02;;;;;;;;;;;19.70;99.90;;;;;;5033577;28;20301;-61
2021/12/04 08:41:29;;;;;;;;;;;19.60;99.90;;;;;;5033145;28;20313;-61
2021/12/04 08:43:56;;;;;;;;;;;19.60;99.90;;;;;;5033641;28;19920;-60
2021/12/04 08:46:23;;;;;;;;;;;19.50;99.90;;;;;;5024875;28;19910;-64
2021/12/04 08:48:50;;;;;;;;;;;19.60;99.90;;;;;;5013620;28;20004;-61
2021/12/04 08:51:18;;;;;;;;;;;19.60;99.90;;;;;;5013744;28;20436;-61
2021/12/04 08:53:45;;;;;;;;;;;19.50;99.90;;;;;;5013734;28;19988;-60
2021/12/04 08:56:12;;;;;;;;;;;19.40;99.90;;;;;;5013663;28;19940;-60
2021/12/04 08:58:40;;;;;;;;;;;19.40;99.90;;;;;;5022777;28;19996;-60
2021/12/04 09:01:11;;;;;;;;;;;19.20;99.90;;;;;;5033509;28;19909;-60
2021/12/04 09:03:40;;;;;;;;;;;19.10;99.90;;;;;;5021982;28;19936;-60
2021/12/04 09:06:07;;;;;;;;;;;19.00;99.90;;;;;;5014836;28;20353;-60
2021/12/04 09:08:34;;;;;;;;;;;19.00;99.90;;;;;;5015515;28;19913;-60
2021/12/04 09:11:04;;;;;;;;;;;18.90;99.90;;;;;;5033596;28;19916;-60
2021/12/04 09:13:31;;;;;;;;;;;18.90;99.90;;;;;;5033142;28;19910;-60
2021/12/04 09:15:58;;;;;;;;;;;18.90;99.90;;;;;;5033080;28;19910;-60
2021/12/04 09:18:25;;;;;;;;;;;18.90;99.90;;;;;;5033183;28;19909;-60
2021/12/04 09:20:54;;;;;;;;;;;18.90;99.90;;;;;;5015417;28;19964;-60
2021/12/04 09:23:22;;;;;;;;;;;18.90;99.90;;;;;;5032998;28;19913;-60
2021/12/04 09:25:53;;;;;;;;;;;18.80;99.90;;;;;;5033011;28;20281;-60
2021/12/04 09:28:33;;;;;;;;;;;18.80;99.90;;;;;;5033084;28;20487;-60
2021/12/04 10:03:59;;;;;;;;;;;18.70;99.90;;;;;;5016716;28;19967;-61
2021/12/04 10:17:59;;;;;;;;;;;18.40;99.90;;;;;;5020775;28;19916;-61
2021/12/04 10:33:50;;;;;;;;;;;18.40;99.90;;;;;;5016304;28;19955;-61
2021/12/04 10:36:28;;;;;;;;;;;18.30;99.90;;;;;;5034506;28;19913;-65
2021/12/04 10:38:55;;;;;;;;;;;18.20;99.90;;;;;;5035554;28;19921;-62
2021/12/04 10:41:32;;;;;;;;;;;18.20;99.90;;;;;;5014857;28;19913;-62
2021/12/04 10:44:11;;;;;;;;;;;18.20;99.90;;;;;;5035763;28;19920;-61
2021/12/04 10:46:38;;;;;;;;;;;18.20;99.90;;;;;;5018046;28;19913;-61
2021/12/04 10:49:14;;;;;;;;;;;18.20;99.90;;;;;;5035665;28;19909;-62
2021/12/04 10:51:50;;;;;;;;;;;18.20;99.90;;;;;;5017879;28;20058;-62
2021/12/04 10:54:24;;;;;;;;;;;18.20;99.90;;;;;;5035383;28;20424;-62
2021/12/04 10:57:04;;;;;;;;;;;18.20;99.90;;;;;;5036065;28;19909;-62
2021/12/04 10:59:46;;;;;;;;;;;18.10;99.90;;;;;;5017212;28;19909;-61
2021/12/04 11:02:25;;;;;;;;;;;18.10;99.90;;;;;;5019013;28;20465;-61
2021/12/04 11:04:58;;;;;;;;;;;18.00;99.90;;;;;;5036632;28;19913;-61
2021/12/04 11:18:43;;;;;;;;;;;17.90;99.90;;;;;;5035400;28;19916;-61
2021/12/04 11:18:47;;;;;;;;;;;17.80;99.90;;;;;;5035279;28;20411;-61
2021/12/04 11:21:46;;;;;;;;;;;17.80;99.90;;;;;;5035198;28;19913;-61
2021/12/04 11:24:34;;;;;;;;;;;17.80;99.90;;;;;;5022371;28;20258;-62
2021/12/04 11:38:18;;;;;;;;;;;17.50;99.90;;;;;;5015218;28;19927;-62
2021/12/04 11:43:41;;;;;;;;;;;17.50;99.90;;;;;;5014883;28;19920;-60
2021/12/04 11:46:20;;;;;;;;;;;17.50;99.90;;;;;;5013165;28;19920;-60
2021/12/04 11:48:46;;;;;;;;;;;17.50;99.90;;;;;;5033806;28;19975;-60
2021/12/04 11:51:16;;;;;;;;;;;17.50;99.90;;;;;;5034627;28;19913;-60
2021/12/04 11:53:43;;;;;;;;;;;17.50;99.90;;;;;;5035822;28;19952;-60
2021/12/04 11:56:16;;;;;;;;;;;17.50;99.90;;;;;;5041881;28;19917;-62
2021/12/04 11:58:44;;;;;;;;;;;17.50;99.90;;;;;;5034381;28;19913;-66
2021/12/04 12:01:31;;;;;;;;;;;17.50;99.90;;;;;;5000460;28;19953;-61
2021/12/04 12:03:59;;;;;;;;;;;17.50;99.90;;;;;;5033123;28;20385;-61
2021/12/04 12:06:33;;;;;;;;;;;17.40;99.90;;;;;;5032964;28;19910;-61
2021/12/04 12:09:01;;;;;;;;;;;17.40;99.90;;;;;;5034224;28;19910;-61
2021/12/04 12:11:28;;;;;;;;;;;17.40;99.90;;;;;;5016476;28;19941;-62
2021/12/04 12:14:07;;;;;;;;;;;17.40;99.90;;;;;;5034190;28;20377;-62
2021/12/04 12:16:37;;;;;;;;;;;17.40;99.90;;;;;;5016479;28;20014;-62
2021/12/04 12:19:08;;;;;;;;;;;17.40;99.90;;;;;;5034019;28;19909;-62
2021/12/04 12:21:58;;;;;;;;;;;17.40;99.90;;;;;;5018562;28;19952;-62
2021/12/04 12:32:43;;;;;;;;;;;17.30;99.90;;;;;;5034191;28;20357;-60
2021/12/04 12:38:07;;;;;;;;;;;17.20;99.90;;;;;;5033618;28;19929;-60
2021/12/04 12:40:35;;;;;;;;;;;17.20;99.90;;;;;;5015861;28;20366;-61
2021/12/04 12:43:11;;;;;;;;;;;17.10;99.90;;;;;;5033571;28;19909;-61
2021/12/04 12:45:38;;;;;;;;;;;17.10;99.90;;;;;;5033565;28;19916;-61
2021/12/04 12:48:06;;;;;;;;;;;17.10;99.90;;;;;;5033425;28;20397;-61
2021/12/04 12:50:34;;;;;;;;;;;17.10;99.90;;;;;;5033634;28;19919;-66
2021/12/04 12:53:05;;;;;;;;;;;17.10;99.90;;;;;;5033532;28;19909;-62
2021/12/04 12:55:34;;;;;;;;;;;17.00;99.90;;;;;;5033399;28;19962;-62
2021/12/04 12:58:19;;;;;;;;;;;17.00;99.90;;;;;;5033448;28;19909;-62
2021/12/04 13:12:02;;;;;;;;;;;17.00;99.90;;;;;;5018373;28;19920;-61
2021/12/04 13:14:30;;;;;;;;;;;17.00;99.90;;;;;;5033246;28;19909;-61
2021/12/04 13:17:00;;;;;;;;;;;17.10;99.90;;;;;;5033225;28;20324;-61
2021/12/04 13:19:27;;;;;;;;;;;17.10;99.90;;;;;;5032829;28;19925;-61
2021/12/04 13:21:56;;;;;;;;;;;17.00;99.90;;;;;;5015594;28;19913;-61
2021/12/04 13:24:24;;;;;;;;;;;17.00;99.90;;;;;;5033187;28;19936;-61
2021/12/04 13:26:51;;;;;;;;;;;17.00;99.90;;;;;;5033074;28;19959;-61
2021/12/04 13:29:19;;;;;;;;;;;17.00;99.90;;;;;;5033115;28;19909;-61
2021/12/04 13:31:46;;;;;;;;;;;17.00;99.90;;;;;;5015500;28;19909;-61
2021/12/04 13:34:14;;;;;;;;;;;16.90;99.90;;;;;;5033004;28;20382;-61
2021/12/04 13:36:41;;;;;;;;;;;17.00;99.90;;;;;;5032994;28;20003;-61
2021/12/04 13:39:11;;;;;;;;;;;17.00;99.90;;;;;;5015441;28;19956;-61
2021/12/04 13:41:39;;;;;;;;;;;17.00;99.90;;;;;;5032926;28;19916;-61
2021/12/04 13:44:07;;;;;;;;;;;17.00;99.90;;;;;;5015143;28;19963;-61
2021/12/04 13:46:45;;;;;;;;;;;17.10;99.90;;;;;;5021240;28;19920;-61
2021/12/04 13:49:12;;;;;;;;;;;17.10;99.90;;;;;;5013182;28;20000;-61
2021/12/04 13:51:39;;;;;;;;;;;17.10;99.90;;;;;;5014238;28;19977;-61
2021/12/04 13:54:09;;;;;;;;;;;17.10;99.90;;;;;;5013053;28;19917;-61
2021/12/04 13:56:36;;;;;;;;;;;17.10;99.90;;;;;;5013018;28;19994;-62
2021/12/04 13:59:05;;;;;;;;;;;17.10;99.90;;;;;;5012960;28;19910;-61
2021/12/04 14:01:36;;;;;;;;;;;17.20;99.90;;;;;;5013075;28;19909;-61
2021/12/04 14:04:05;;;;;;;;;;;17.20;99.90;;;;;;5012919;28;20401;-61
2021/12/04 14:06:32;;;;;;;;;;;17.20;99.90;;;;;;5013029;28;20029;-61
2021/12/04 14:09:08;;;;;;;;;;;17.20;99.90;;;;;;5013391;28;19916;-61
2021/12/04 14:11:36;;;;;;;;;;;17.20;99.90;;;;;;5013001;28;19910;-61
2021/12/04 14:14:12;;;;;;;;;;;17.20;99.90;;;;;;5012992;28;19963;-61
2021/12/04 14:16:39;;;;;;;;;;;17.20;99.90;;;;;;4995288;28;19916;-61
2021/12/04 14:19:16;;;;;;;;;;;17.30;99.90;;;;;;5012731;28;20226;-61
2021/12/04 14:21:52;;;;;;;;;;;17.20;99.90;;;;;;5012824;28;20341;-61
2021/12/04 14:24:26;;;;;;;;;;;17.30;99.90;;;;;;4995309;28;19920;-61
2021/12/04 14:26:54;;;;;;;;;;;17.30;99.90;;;;;;4995437;28;20016;-61
2021/12/04 14:29:20;;;;;;;;;;;17.30;99.90;;;;;;5012890;28;19927;-61
2021/12/04 14:31:48;;;;;;;;;;;17.20;99.90;;;;;;5016191;28;20282;-61
2021/12/04 14:34:22;;;;;;;;;;;17.20;99.90;;;;;;4982474;28;20385;-60
2021/12/04 14:36:58;;;;;;;;;;;17.20;99.90;;;;;;4998543;28;19916;-60
2021/12/04 14:39:25;;;;;;;;;;;17.20;99.90;;;;;;5016124;28;19996;-60
2021/12/04 14:41:52;;;;;;;;;;;17.20;99.90;;;;;;4998539;28;20384;-61
2021/12/04 14:44:19;;;;;;;;;;;17.30;99.90;;;;;;5016098;28;19960;-61
2021/12/04 14:46:46;;;;;;;;;;;17.30;99.90;;;;;;5015964;28;19910;-61
2021/12/04 14:49:13;;;;;;;;;;;17.30;99.90;;;;;;5016081;28;19910;-61
2021/12/04 14:51:40;;;;;;;;;;;17.30;99.90;;;;;;5015999;28;19918;-61
2021/12/04 14:54:07;;;;;;;;;;;17.30;99.90;;;;;;5015927;28;19916;-61
2021/12/04 14:56:34;;;;;;;;;;;17.30;99.90;;;;;;5015933;28;19913;-61
2021/12/04 14:59:01;;;;;;;;;;;17.30;99.90;;;;;;5015725;28;19909;-61
2021/12/04 15:01:32;;;;;;;;;;;17.30;99.90;;;;;;5015848;28;19910;-61
2021/12/04 15:04:01;;;;;;;;;;;17.30;99.90;;;;;;5015695;28;19960;-61
2021/12/04 15:06:28;;;;;;;;;;;17.30;99.90;;;;;;5015775;28;19910;-61
2021/12/04 15:08:59;;;;;;;;;;;17.30;99.90;;;;;;5015711;28;19910;-61
2021/12/04 15:11:34;;;;;;;;;;;17.30;99.90;;;;;;5015555;28;20477;-61
2021/12/04 15:14:03;;;;;;;;;;;17.20;99.90;;;;;;4997993;28;19933;-61
2021/12/04 15:16:34;;;;;;;;;;;17.20;99.90;;;;;;5015567;28;19909;-61
2021/12/04 15:19:17;;;;;;;;;;;17.20;99.90;;;;;;5015463;28;19981;-61
2021/12/04 15:21:51;;;;;;;;;;;17.20;99.90;;;;;;5015461;28;19913;-61
2021/12/04 15:24:23;;;;;;;;;;;17.20;99.90;;;;;;5015238;28;19956;-61
2021/12/04 15:26:51;;;;;;;;;;;17.20;99.90;;;;;;5015348;28;19910;-61
2021/12/04 15:29:19;;;;;;;;;;;17.20;99.90;;;;;;4997943;28;19917;-61
2021/12/04 15:31:47;;;;;;;;;;;17.20;99.90;;;;;;5015278;28;19909;-61
2021/12/04 15:34:14;;;;;;;;;;;17.20;99.90;;;;;;5015225;28;19920;-61
2021/12/04 15:36:46;;;;;;;;;;;17.20;99.90;;;;;;5015016;28;19909;-61
2021/12/04 15:39:18;;;;;;;;;;;17.20;99.90;;;;;;5015277;28;20382;-61
2021/12/04 15:48:06;;;;;;;;;;;17.30;99.90;;;;;;5014949;28;19909;-61
2021/12/04 15:52:51;;;;;;;;;;;17.30;99.90;;;;;;5014911;28;19916;-61
2021/12/04 15:55:22;;;;;;;;;;;17.30;99.90;;;;;;4997470;28;19910;-61
2021/12/04 15:57:53;;;;;;;;;;;17.30;99.90;;;;;;4997440;28;19917;-61
2021/12/04 16:00:20;;;;;;;;;;;17.30;99.90;;;;;;5014646;28;20354;-61
2021/12/04 16:02:51;;;;;;;;;;;17.30;99.90;;;;;;5014720;28;20385;-61
2021/12/04 16:05:19;;;;;;;;;;;17.30;99.90;;;;;;4997615;28;20410;-61
2021/12/04 16:07:50;;;;;;;;;;;17.40;99.90;;;;;;5014531;28;19914;-61
2021/12/04 16:10:21;;;;;;;;;;;17.40;99.90;;;;;;4996952;28;19932;-62
2021/12/04 16:12:53;;;;;;;;;;;17.40;99.90;;;;;;4996791;28;19916;-61
2021/12/04 16:15:21;;;;;;;;;;;17.50;99.90;;;;;;4997247;28;20000;-61
2021/12/04 16:17:48;;;;;;;;;;;17.50;99.90;;;;;;4996796;28;19909;-61
2021/12/04 16:20:19;;;;;;;;;;;17.40;99.90;;;;;;5014276;28;19909;-61
2021/12/04 16:22:48;;;;;;;;;;;17.40;99.90;;;;;;5014334;28;20317;-61
2021/12/04 16:25:20;;;;;;;;;;;17.30;99.90;;;;;;5014199;28;19967;-61
2021/12/04 16:30:38;;;;;;;;;;;17.20;99.90;;;;;;5014213;28;19916;-61
2021/12/04 16:38:23;;;;;;;;;;;16.90;99.90;;;;;;5013930;28;19922;-61
2021/12/04 16:40:51;;;;;;;;;;;16.80;99.90;;;;;;5013956;28;19913;-61
2021/12/04 16:43:28;;;;;;;;;;;16.80;99.90;;;;;;5013845;28;19909;-61
2021/12/04 16:45:56;;;;;;;;;;;16.70;99.90;;;;;;4996523;28;19909;-61
2021/12/04 16:48:26;;;;;;;;;;;16.70;99.90;;;;;;5014175;28;20362;-61
2021/12/04 16:58:49;;;;;;;;;;;16.70;99.90;;;;;;5033425;28;19916;-61
2021/12/04 17:01:16;;;;;;;;;;;16.70;99.90;;;;;;5033421;28;19920;-61
2021/12/04 17:03:43;;;;;;;;;;;16.70;99.90;;;;;;5015552;28;20274;-61
2021/12/04 17:06:10;;;;;;;;;;;16.70;99.90;;;;;;5033391;28;19915;-61
2021/12/04 17:08:37;;;;;;;;;;;16.70;99.90;;;;;;5033160;28;20365;-61
2021/12/04 17:11:04;;;;;;;;;;;16.70;99.90;;;;;;5033269;28;20000;-61
2021/12/04 17:13:31;;;;;;;;;;;16.70;99.90;;;;;;5033270;28;19909;-61
2021/12/04 17:15:58;;;;;;;;;;;16.70;99.90;;;;;;5033118;28;19916;-61
2021/12/04 17:18:26;;;;;;;;;;;16.70;99.90;;;;;;5033250;28;19909;-61
2021/12/04 17:20:57;;;;;;;;;;;16.80;99.90;;;;;;5033085;28;19909;-61
2021/12/04 17:23:24;;;;;;;;;;;16.80;99.90;;;;;;5033107;28;20215;-61
2021/12/04 17:25:51;;;;;;;;;;;16.80;99.90;;;;;;5033055;28;20437;-61
2021/12/04 17:28:20;;;;;;;;;;;16.80;99.90;;;;;;5015576;28;20278;-61
2021/12/04 17:30:49;;;;;;;;;;;16.80;99.90;;;;;;5033079;28;19925;-61
2021/12/04 17:33:16;;;;;;;;;;;16.80;99.90;;;;;;5033102;28;19955;-61
2021/12/04 17:35:42;;;;;;;;;;;16.80;99.90;;;;;;5032989;28;20373;-61
2021/12/04 17:38:10;;;;;;;;;;;16.80;99.90;;;;;;5015182;28;19975;-61
2021/12/04 17:40:37;;;;;;;;;;;16.80;99.90;;;;;;5015086;28;19917;-61